Amlwch, United Kingdom
Current Conditions -  °F | °C
As of 8:50 AM on Friday 24 Oct 2014 (Local Time) from EGOV Reporting Station
Few Clouds Few Clouds  
Wind Chill: 54°   Ceiling: Unl
Heat Index: 54°   Visibility: 6mi
Dew Point: 46°   Wind: 8mph
Humidity: 77%   Direction: 240°WSW
Pressure: 29.88"   Gusts: NA
Location:  53.41°N, 4.35°W
Report Text: EGOV 240750Z 24007KT 9999 FEW022 12/08 Q1012 BLU NOSIG
Loading
Personal Weather Stations






























Interactive Weather Map
Tropical Storm Tracking
New forecast layout! Learn more

10-Day Weather Forecast

Advertisements
Track Severe Weather on mobile